This is the latest recevied weather packets stored in our database for station/object HR1LRC-21. If no packets are shown the sender has not sent any weather packets the latest 10 day(s).
| Time | Temp. | Humidity | Pressure | Rain* | Wind** | Luminosity | Snow |
|---|---|---|---|---|---|---|---|
| 1777922347 | 26.67° C | 32% | 1011 hPa | 0 mm | - | - | - |
| 1777921747 | 26.67° C | 31% | 1010 hPa | 0 mm | - | - | - |
| 1777921146 | 26.11° C | 31% | 1010 hPa | 0 mm | - | - | - |
| 1777920546 | 26.11° C | 31% | 1010 hPa | 0 mm | - | - | - |
| 1777919945 | 26.11° C | 32% | 1011 hPa | 0 mm | - | - | - |
| 1777919345 | 25.56° C | 35% | 1013 hPa | 0 mm | - | - | - |
| 1777918744 | 25.56° C | 35% | 1013 hPa | 0 mm | - | - | - |
| 1777918143 | 25.56° C | 35% | 1013 hPa | 0 mm | - | - | - |
| 1777917543 | 25.56° C | 35% | 1013 hPa | 0 mm | - | - | - |
| 1777916942 | 25.56° C | 35% | 1013 hPa | 0 mm | - | - | - |
| 1777916342 | 25.56° C | 38% | 1013 hPa | 0 mm | - | - | - |
| 1777915736 | 24.44° C | 44% | 1015 hPa | 0 mm | - | - | - |
| 1777915135 | 24.44° C | 44% | 1015 hPa | 0 mm | - | - | - |
| 1777914535 | 24.44° C | 45% | 1014 hPa | 0 mm | - | - | - |
| 1777913934 | 24.44° C | 45% | 1014 hPa | 0 mm | - | - | - |
| 1777913334 | 24.44° C | 45% | 1014 hPa | 0 mm | - | - | - |
| 1777912733 | 22.78° C | 53% | 1015 hPa | 0 mm | - | - | - |
| 1777912132 | 22.78° C | 53% | 1015 hPa | 0 mm | - | - | - |
| 1777911532 | 22.78° C | 53% | 1015 hPa | 0 mm | - | - | - |
| 1777910931 | 22.78° C | 55% | 1015 hPa | 0 mm | - | - | - |
| 1777910331 | 22.78° C | 54% | 1015 hPa | 0 mm | - | - | - |
| 1777909730 | 22.78° C | 54% | 1015 hPa | 0 mm | - | - | - |
| 1777909130 | 21.67° C | 62% | 1015 hPa | 0 mm | - | - | - |
| 1777908529 | 21.67° C | 62% | 1015 hPa | 0 mm | - | - | - |
| 1777907928 | 21.67° C | 62% | 1015 hPa | 0 mm | - | - | - |
* Rain latest hour (hover to see other rain measurements)
** Current wind speed in m/s (hover to see current wind gust speed)